sensor_id;sensor_type;location;lat;lon;timestamp;pressure;altitude;pressure_sealevel;temperature
11424;BMP180;5768;51.476;7.210;2022-07-29T00:02:34;100331.00;;;23.10
11424;BMP180;5768;51.476;7.210;2022-07-29T00:05:38;100336.00;;;23.00
11424;BMP180;5768;51.476;7.210;2022-07-29T00:08:40;100323.00;;;23.00
11424;BMP180;5768;51.476;7.210;2022-07-29T00:11:42;100326.00;;;23.00
11424;BMP180;5768;51.476;7.210;2022-07-29T00:14:44;100320.00;;;23.00
11424;BMP180;5768;51.476;7.210;2022-07-29T00:17:48;100316.00;;;22.90
11424;BMP180;5768;51.476;7.210;2022-07-29T00:20:50;100322.00;;;22.90
11424;BMP180;5768;51.476;7.210;2022-07-29T00:23:53;100316.00;;;22.90
11424;BMP180;5768;51.476;7.210;2022-07-29T00:26:55;100316.00;;;22.80
11424;BMP180;5768;51.476;7.210;2022-07-29T00:29:57;100309.00;;;22.80
11424;BMP180;5768;51.476;7.210;2022-07-29T00:33:00;100312.00;;;22.80
11424;BMP180;5768;51.476;7.210;2022-07-29T00:36:03;100301.00;;;22.80
11424;BMP180;5768;51.476;7.210;2022-07-29T00:39:05;100302.00;;;22.80
11424;BMP180;5768;51.476;7.210;2022-07-29T00:42:07;100293.00;;;22.80
11424;BMP180;5768;51.476;7.210;2022-07-29T00:45:11;100297.00;;;22.80
11424;BMP180;5768;51.476;7.210;2022-07-29T00:48:15;100284.00;;;22.80
11424;BMP180;5768;51.476;7.210;2022-07-29T00:51:18;100289.00;;;22.80
11424;BMP180;5768;51.476;7.210;2022-07-29T00:54:20;100271.00;;;22.80
11424;BMP180;5768;51.476;7.210;2022-07-29T00:57:22;100275.00;;;22.80
11424;BMP180;5768;51.476;7.210;2022-07-29T01:00:27;100260.00;;;22.70
11424;BMP180;5768;51.476;7.210;2022-07-29T01:03:31;100268.00;;;22.70
11424;BMP180;5768;51.476;7.210;2022-07-29T01:06:34;100258.00;;;22.60
11424;BMP180;5768;51.476;7.210;2022-07-29T01:09:37;100251.00;;;22.60
11424;BMP180;5768;51.476;7.210;2022-07-29T01:12:40;100261.00;;;22.50
11424;BMP180;5768;51.476;7.210;2022-07-29T01:15:49;100259.00;;;22.50
11424;BMP180;5768;51.476;7.210;2022-07-29T01:19:06;100248.00;;;22.40
11424;BMP180;5768;51.476;7.210;2022-07-29T01:22:27;100246.00;;;22.40
11424;BMP180;5768;51.476;7.210;2022-07-29T01:25:57;100247.00;;;22.40
11424;BMP180;5768;51.476;7.210;2022-07-29T01:29:14;100248.00;;;22.30
11424;BMP180;5768;51.476;7.210;2022-07-29T01:32:22;100241.00;;;22.30
11424;BMP180;5768;51.476;7.210;2022-07-29T01:35:34;100248.00;;;22.30
11424;BMP180;5768;51.476;7.210;2022-07-29T01:38:41;100238.00;;;22.30
11424;BMP180;5768;51.476;7.210;2022-07-29T01:41:51;100230.00;;;22.30
11424;BMP180;5768;51.476;7.210;2022-07-29T01:45:02;100234.00;;;22.30
11424;BMP180;5768;51.476;7.210;2022-07-29T01:48:14;100236.00;;;22.20
11424;BMP180;5768;51.476;7.210;2022-07-29T01:51:20;100239.00;;;22.20
11424;BMP180;5768;51.476;7.210;2022-07-29T01:54:35;100226.00;;;22.20
11424;BMP180;5768;51.476;7.210;2022-07-29T01:57:44;100226.00;;;22.10
11424;BMP180;5768;51.476;7.210;2022-07-29T02:00:50;100220.00;;;22.10
11424;BMP180;5768;51.476;7.210;2022-07-29T02:03:55;100213.00;;;22.10
11424;BMP180;5768;51.476;7.210;2022-07-29T02:07:02;100214.00;;;22.00
11424;BMP180;5768;51.476;7.210;2022-07-29T02:10:09;100205.00;;;22.00
11424;BMP180;5768;51.476;7.210;2022-07-29T02:13:14;100218.00;;;22.00
11424;BMP180;5768;51.476;7.210;2022-07-29T02:16:21;100221.00;;;21.90
11424;BMP180;5768;51.476;7.210;2022-07-29T02:19:26;100216.00;;;21.90
11424;BMP180;5768;51.476;7.210;2022-07-29T02:22:31;100213.00;;;21.90
11424;BMP180;5768;51.476;7.210;2022-07-29T02:25:35;100207.00;;;21.90
11424;BMP180;5768;51.476;7.210;2022-07-29T02:28:40;100204.00;;;21.90
11424;BMP180;5768;51.476;7.210;2022-07-29T02:31:45;100205.00;;;21.90
11424;BMP180;5768;51.476;7.210;2022-07-29T02:34:50;100194.00;;;21.90
11424;BMP180;5768;51.476;7.210;2022-07-29T02:37:53;100185.00;;;21.90
11424;BMP180;5768;51.476;7.210;2022-07-29T02:41:18;100183.00;;;21.80
11424;BMP180;5768;51.476;7.210;2022-07-29T02:44:25;100187.00;;;21.80
11424;BMP180;5768;51.476;7.210;2022-07-29T02:47:36;100192.00;;;21.70
11424;BMP180;5768;51.476;7.210;2022-07-29T02:50:48;100206.00;;;21.70
11424;BMP180;5768;51.476;7.210;2022-07-29T02:53:54;100209.00;;;21.70
11424;BMP180;5768;51.476;7.210;2022-07-29T02:57:05;100211.00;;;21.70
11424;BMP180;5768;51.476;7.210;2022-07-29T03:00:10;100207.00;;;21.70
11424;BMP180;5768;51.476;7.210;2022-07-29T03:03:17;100214.00;;;21.70
11424;BMP180;5768;51.476;7.210;2022-07-29T03:06:23;100211.00;;;21.80
11424;BMP180;5768;51.476;7.210;2022-07-29T03:09:29;100211.00;;;21.80
11424;BMP180;5768;51.476;7.210;2022-07-29T03:12:32;100203.00;;;21.80
11424;BMP180;5768;51.476;7.210;2022-07-29T03:15:35;100202.00;;;21.80
11424;BMP180;5768;51.476;7.210;2022-07-29T03:18:40;100189.00;;;21.80
11424;BMP180;5768;51.476;7.210;2022-07-29T03:21:42;100197.00;;;21.80
11424;BMP180;5768;51.476;7.210;2022-07-29T03:24:44;100193.00;;;21.80
11424;BMP180;5768;51.476;7.210;2022-07-29T03:27:48;100205.00;;;21.80
11424;BMP180;5768;51.476;7.210;2022-07-29T03:30:50;100202.00;;;21.80
11424;BMP180;5768;51.476;7.210;2022-07-29T03:33:53;100195.00;;;21.80
11424;BMP180;5768;51.476;7.210;2022-07-29T03:36:55;100200.00;;;21.80
11424;BMP180;5768;51.476;7.210;2022-07-29T03:39:58;100210.00;;;21.80
11424;BMP180;5768;51.476;7.210;2022-07-29T03:43:03;100224.00;;;21.70
11424;BMP180;5768;51.476;7.210;2022-07-29T03:46:09;100227.00;;;21.60
11424;BMP180;5768;51.476;7.210;2022-07-29T03:49:16;100237.00;;;21.30
11424;BMP180;5768;51.476;7.210;2022-07-29T03:52:19;100234.00;;;21.20
11424;BMP180;5768;51.476;7.210;2022-07-29T03:55:23;100234.00;;;21.00
11424;BMP180;5768;51.476;7.210;2022-07-29T03:58:27;100239.00;;;21.00
11424;BMP180;5768;51.476;7.210;2022-07-29T04:01:32;100239.00;;;20.90
11424;BMP180;5768;51.476;7.210;2022-07-29T04:04:37;100235.00;;;21.00
11424;BMP180;5768;51.476;7.210;2022-07-29T04:07:39;100240.00;;;21.10
11424;BMP180;5768;51.476;7.210;2022-07-29T04:10:41;100265.00;;;21.10
11424;BMP180;5768;51.476;7.210;2022-07-29T04:13:43;100267.00;;;21.00
11424;BMP180;5768;51.476;7.210;2022-07-29T04:16:45;100266.00;;;20.90
11424;BMP180;5768;51.476;7.210;2022-07-29T04:19:49;100277.00;;;20.90
11424;BMP180;5768;51.476;7.210;2022-07-29T04:22:51;100277.00;;;20.90
11424;BMP180;5768;51.476;7.210;2022-07-29T04:25:53;100279.00;;;20.80
11424;BMP180;5768;51.476;7.210;2022-07-29T04:28:55;100285.00;;;20.80
11424;BMP180;5768;51.476;7.210;2022-07-29T04:31:57;100299.00;;;20.80
11424;BMP180;5768;51.476;7.210;2022-07-29T04:35:00;100284.00;;;20.70
11424;BMP180;5768;51.476;7.210;2022-07-29T04:38:04;100284.00;;;20.70
11424;BMP180;5768;51.476;7.210;2022-07-29T04:41:06;100294.00;;;20.70
11424;BMP180;5768;51.476;7.210;2022-07-29T04:44:09;100297.00;;;20.70
11424;BMP180;5768;51.476;7.210;2022-07-29T04:47:11;100292.00;;;20.60
11424;BMP180;5768;51.476;7.210;2022-07-29T04:50:14;100300.00;;;20.60
11424;BMP180;5768;51.476;7.210;2022-07-29T04:53:16;100303.00;;;20.60
11424;BMP180;5768;51.476;7.210;2022-07-29T04:56:18;100305.00;;;20.60
11424;BMP180;5768;51.476;7.210;2022-07-29T04:59:20;100305.00;;;20.70
11424;BMP180;5768;51.476;7.210;2022-07-29T05:02:23;100297.00;;;20.70
11424;BMP180;5768;51.476;7.210;2022-07-29T05:05:26;100299.00;;;20.70
11424;BMP180;5768;51.476;7.210;2022-07-29T05:08:28;100296.00;;;20.80
11424;BMP180;5768;51.476;7.210;2022-07-29T05:11:30;100290.00;;;20.90
11424;BMP180;5768;51.476;7.210;2022-07-29T05:14:33;100278.00;;;20.90
11424;BMP180;5768;51.476;7.210;2022-07-29T05:17:35;100291.00;;;21.00
11424;BMP180;5768;51.476;7.210;2022-07-29T05:20:38;100291.00;;;20.90
11424;BMP180;5768;51.476;7.210;2022-07-29T05:23:40;100289.00;;;20.90
11424;BMP180;5768;51.476;7.210;2022-07-29T05:26:43;100289.00;;;20.90
11424;BMP180;5768;51.476;7.210;2022-07-29T05:29:45;100302.00;;;20.90
11424;BMP180;5768;51.476;7.210;2022-07-29T05:32:47;100286.00;;;20.90
11424;BMP180;5768;51.476;7.210;2022-07-29T05:35:51;100282.00;;;21.00
11424;BMP180;5768;51.476;7.210;2022-07-29T05:38:53;100276.00;;;21.00
11424;BMP180;5768;51.476;7.210;2022-07-29T05:41:55;100276.00;;;21.10
11424;BMP180;5768;51.476;7.210;2022-07-29T05:44:57;100270.00;;;21.10
11424;BMP180;5768;51.476;7.210;2022-07-29T05:47:59;100272.00;;;21.10
11424;BMP180;5768;51.476;7.210;2022-07-29T05:51:03;100272.00;;;21.10
11424;BMP180;5768;51.476;7.210;2022-07-29T05:54:05;100270.00;;;21.10
11424;BMP180;5768;51.476;7.210;2022-07-29T05:57:08;100265.00;;;21.10
11424;BMP180;5768;51.476;7.210;2022-07-29T06:00:11;100265.00;;;21.10
11424;BMP180;5768;51.476;7.210;2022-07-29T06:03:14;100266.00;;;21.20
11424;BMP180;5768;51.476;7.210;2022-07-29T06:06:17;100271.00;;;21.30
11424;BMP180;5768;51.476;7.210;2022-07-29T06:09:20;100287.00;;;21.40
11424;BMP180;5768;51.476;7.210;2022-07-29T06:12:23;100293.00;;;21.50
11424;BMP180;5768;51.476;7.210;2022-07-29T06:15:25;100294.00;;;21.60
11424;BMP180;5768;51.476;7.210;2022-07-29T06:18:28;100299.00;;;21.70
11424;BMP180;5768;51.476;7.210;2022-07-29T06:21:31;100300.00;;;21.80
11424;BMP180;5768;51.476;7.210;2022-07-29T06:24:36;100303.00;;;21.90
11424;BMP180;5768;51.476;7.210;2022-07-29T06:27:42;100299.00;;;22.00
11424;BMP180;5768;51.476;7.210;2022-07-29T06:30:44;100304.00;;;22.10
11424;BMP180;5768;51.476;7.210;2022-07-29T06:33:46;100302.00;;;22.20
11424;BMP180;5768;51.476;7.210;2022-07-29T06:36:49;100296.00;;;22.20
11424;BMP180;5768;51.476;7.210;2022-07-29T06:39:53;100295.00;;;22.40
11424;BMP180;5768;51.476;7.210;2022-07-29T06:43:09;100290.00;;;22.50
11424;BMP180;5768;51.476;7.210;2022-07-29T06:46:14;100290.00;;;22.50
11424;BMP180;5768;51.476;7.210;2022-07-29T06:49:16;100285.00;;;22.60
11424;BMP180;5768;51.476;7.210;2022-07-29T06:52:19;100287.00;;;22.70
11424;BMP180;5768;51.476;7.210;2022-07-29T06:55:22;100284.00;;;22.80
11424;BMP180;5768;51.476;7.210;2022-07-29T06:58:24;100292.00;;;22.80
11424;BMP180;5768;51.476;7.210;2022-07-29T07:01:26;100303.00;;;23.00
11424;BMP180;5768;51.476;7.210;2022-07-29T07:04:28;100308.00;;;23.10
11424;BMP180;5768;51.476;7.210;2022-07-29T07:07:32;100309.00;;;23.20
11424;BMP180;5768;51.476;7.210;2022-07-29T07:10:34;100310.00;;;23.30
11424;BMP180;5768;51.476;7.210;2022-07-29T07:13:36;100312.00;;;23.40
11424;BMP180;5768;51.476;7.210;2022-07-29T07:16:38;100316.00;;;23.50
11424;BMP180;5768;51.476;7.210;2022-07-29T07:19:40;100324.00;;;23.70
11424;BMP180;5768;51.476;7.210;2022-07-29T07:22:44;100321.00;;;23.80
11424;BMP180;5768;51.476;7.210;2022-07-29T07:25:46;100330.00;;;23.90
11424;BMP180;5768;51.476;7.210;2022-07-29T07:28:48;100334.00;;;24.00
11424;BMP180;5768;51.476;7.210;2022-07-29T07:31:50;100331.00;;;24.10
11424;BMP180;5768;51.476;7.210;2022-07-29T07:34:52;100333.00;;;24.10
11424;BMP180;5768;51.476;7.210;2022-07-29T07:37:57;100338.00;;;24.20
11424;BMP180;5768;51.476;7.210;2022-07-29T07:41:00;100337.00;;;24.20
11424;BMP180;5768;51.476;7.210;2022-07-29T07:44:02;100347.00;;;24.20
11424;BMP180;5768;51.476;7.210;2022-07-29T07:47:04;100346.00;;;24.10
11424;BMP180;5768;51.476;7.210;2022-07-29T07:50:10;100352.00;;;24.00
11424;BMP180;5768;51.476;7.210;2022-07-29T07:53:14;100343.00;;;23.90
11424;BMP180;5768;51.476;7.210;2022-07-29T07:56:17;100339.00;;;24.00
11424;BMP180;5768;51.476;7.210;2022-07-29T07:59:19;100335.00;;;24.10
11424;BMP180;5768;51.476;7.210;2022-07-29T08:02:21;100337.00;;;24.20
11424;BMP180;5768;51.476;7.210;2022-07-29T08:05:23;100336.00;;;24.20
11424;BMP180;5768;51.476;7.210;2022-07-29T08:08:27;100334.00;;;24.30
11424;BMP180;5768;51.476;7.210;2022-07-29T08:11:29;100338.00;;;24.30
11424;BMP180;5768;51.476;7.210;2022-07-29T08:14:32;100342.00;;;24.40
11424;BMP180;5768;51.476;7.210;2022-07-29T08:17:34;100352.00;;;24.50
11424;BMP180;5768;51.476;7.210;2022-07-29T08:20:37;100348.00;;;24.60
11424;BMP180;5768;51.476;7.210;2022-07-29T08:23:42;100349.00;;;24.60
11424;BMP180;5768;51.476;7.210;2022-07-29T08:26:49;100351.00;;;24.50
11424;BMP180;5768;51.476;7.210;2022-07-29T08:29:52;100352.00;;;24.40
11424;BMP180;5768;51.476;7.210;2022-07-29T08:32:56;100350.00;;;24.20
11424;BMP180;5768;51.476;7.210;2022-07-29T08:35:59;100355.00;;;24.00
11424;BMP180;5768;51.476;7.210;2022-07-29T08:39:03;100355.00;;;23.90
11424;BMP180;5768;51.476;7.210;2022-07-29T08:42:06;100343.00;;;23.90
11424;BMP180;5768;51.476;7.210;2022-07-29T08:45:09;100339.00;;;23.90
11424;BMP180;5768;51.476;7.210;2022-07-29T08:48:12;100333.00;;;23.80
11424;BMP180;5768;51.476;7.210;2022-07-29T08:51:16;100337.00;;;23.70
11424;BMP180;5768;51.476;7.210;2022-07-29T08:54:22;100339.00;;;23.80
11424;BMP180;5768;51.476;7.210;2022-07-29T08:57:25;100344.00;;;23.80
11424;BMP180;5768;51.476;7.210;2022-07-29T09:00:28;100344.00;;;23.80
11424;BMP180;5768;51.476;7.210;2022-07-29T09:03:33;100346.00;;;23.70
11424;BMP180;5768;51.476;7.210;2022-07-29T09:06:43;100341.00;;;23.70
11424;BMP180;5768;51.476;7.210;2022-07-29T09:09:47;100356.00;;;23.80
11424;BMP180;5768;51.476;7.210;2022-07-29T09:12:49;100356.00;;;23.80
11424;BMP180;5768;51.476;7.210;2022-07-29T09:15:53;100365.00;;;23.70
11424;BMP180;5768;51.476;7.210;2022-07-29T09:18:55;100355.00;;;23.60
11424;BMP180;5768;51.476;7.210;2022-07-29T09:21:59;100359.00;;;23.50
11424;BMP180;5768;51.476;7.210;2022-07-29T09:25:04;100358.00;;;23.40
11424;BMP180;5768;51.476;7.210;2022-07-29T09:28:07;100361.00;;;23.30
11424;BMP180;5768;51.476;7.210;2022-07-29T09:31:10;100360.00;;;23.10
11424;BMP180;5768;51.476;7.210;2022-07-29T09:34:16;100345.00;;;22.90
11424;BMP180;5768;51.476;7.210;2022-07-29T09:37:28;100353.00;;;22.80
11424;BMP180;5768;51.476;7.210;2022-07-29T09:40:32;100348.00;;;22.80
11424;BMP180;5768;51.476;7.210;2022-07-29T09:43:34;100343.00;;;22.80
11424;BMP180;5768;51.476;7.210;2022-07-29T09:46:36;100336.00;;;22.80
11424;BMP180;5768;51.476;7.210;2022-07-29T09:49:54;100333.00;;;22.90
11424;BMP180;5768;51.476;7.210;2022-07-29T09:52:58;100320.00;;;23.00
11424;BMP180;5768;51.476;7.210;2022-07-29T09:56:02;100322.00;;;23.10
11424;BMP180;5768;51.476;7.210;2022-07-29T09:59:06;100319.00;;;23.30
11424;BMP180;5768;51.476;7.210;2022-07-29T10:02:12;100321.00;;;23.40
11424;BMP180;5768;51.476;7.210;2022-07-29T10:05:20;100314.00;;;23.40
11424;BMP180;5768;51.476;7.210;2022-07-29T10:08:25;100312.00;;;23.40
11424;BMP180;5768;51.476;7.210;2022-07-29T10:11:29;100314.00;;;23.40
11424;BMP180;5768;51.476;7.210;2022-07-29T10:14:32;100315.00;;;23.30
11424;BMP180;5768;51.476;7.210;2022-07-29T10:17:34;100312.00;;;23.30
11424;BMP180;5768;51.476;7.210;2022-07-29T10:20:37;100320.00;;;23.40
11424;BMP180;5768;51.476;7.210;2022-07-29T10:23:40;100323.00;;;23.50
11424;BMP180;5768;51.476;7.210;2022-07-29T10:26:44;100324.00;;;23.60
11424;BMP180;5768;51.476;7.210;2022-07-29T10:29:48;100333.00;;;23.70
11424;BMP180;5768;51.476;7.210;2022-07-29T10:33:14;100335.00;;;23.70
11424;BMP180;5768;51.476;7.210;2022-07-29T10:36:38;100343.00;;;23.70
11424;BMP180;5768;51.476;7.210;2022-07-29T10:39:56;100334.00;;;23.80
11424;BMP180;5768;51.476;7.210;2022-07-29T10:43:17;100333.00;;;23.90
11424;BMP180;5768;51.476;7.210;2022-07-29T10:46:21;100336.00;;;23.90
11424;BMP180;5768;51.476;7.210;2022-07-29T10:49:27;100340.00;;;24.00
11424;BMP180;5768;51.476;7.210;2022-07-29T10:53:03;100334.00;;;24.00
11424;BMP180;5768;51.476;7.210;2022-07-29T10:56:24;100338.00;;;23.90
11424;BMP180;5768;51.476;7.210;2022-07-29T10:59:28;100336.00;;;23.90
11424;BMP180;5768;51.476;7.210;2022-07-29T11:02:45;100335.00;;;23.90
11424;BMP180;5768;51.476;7.210;2022-07-29T11:05:56;100334.00;;;23.90
11424;BMP180;5768;51.476;7.210;2022-07-29T11:09:19;100333.00;;;23.90
11424;BMP180;5768;51.476;7.210;2022-07-29T11:12:46;100339.00;;;24.00
11424;BMP180;5768;51.476;7.210;2022-07-29T11:15:56;100341.00;;;24.10
11424;BMP180;5768;51.476;7.210;2022-07-29T11:19:23;100339.00;;;24.20
11424;BMP180;5768;51.476;7.210;2022-07-29T11:22:33;100337.00;;;24.30
11424;BMP180;5768;51.476;7.210;2022-07-29T11:25:36;100340.00;;;24.40
11424;BMP180;5768;51.476;7.210;2022-07-29T11:28:49;100346.00;;;24.60
11424;BMP180;5768;51.476;7.210;2022-07-29T11:32:08;100334.00;;;24.90
11424;BMP180;5768;51.476;7.210;2022-07-29T11:35:18;100338.00;;;25.30
11424;BMP180;5768;51.476;7.210;2022-07-29T11:38:25;100336.00;;;25.60
11424;BMP180;5768;51.476;7.210;2022-07-29T11:41:28;100339.00;;;25.80
11424;BMP180;5768;51.476;7.210;2022-07-29T11:44:54;100326.00;;;26.00
11424;BMP180;5768;51.476;7.210;2022-07-29T11:47:59;100331.00;;;26.00
11424;BMP180;5768;51.476;7.210;2022-07-29T11:51:10;100331.00;;;26.10
11424;BMP180;5768;51.476;7.210;2022-07-29T11:54:15;100339.00;;;26.20
11424;BMP180;5768;51.476;7.210;2022-07-29T11:57:24;100337.00;;;26.20
11424;BMP180;5768;51.476;7.210;2022-07-29T12:00:31;100333.00;;;26.20
11424;BMP180;5768;51.476;7.210;2022-07-29T12:03:34;100331.00;;;26.50
11424;BMP180;5768;51.476;7.210;2022-07-29T12:06:37;100334.00;;;26.80
11424;BMP180;5768;51.476;7.210;2022-07-29T12:09:39;100344.00;;;27.10
11424;BMP180;5768;51.476;7.210;2022-07-29T12:12:41;100337.00;;;27.30
11424;BMP180;5768;51.476;7.210;2022-07-29T12:15:53;100349.00;;;27.30
11424;BMP180;5768;51.476;7.210;2022-07-29T12:18:58;100351.00;;;27.30
11424;BMP180;5768;51.476;7.210;2022-07-29T12:22:01;100351.00;;;27.20
11424;BMP180;5768;51.476;7.210;2022-07-29T12:25:06;100349.00;;;27.20
11424;BMP180;5768;51.476;7.210;2022-07-29T12:28:12;100350.00;;;27.20
11424;BMP180;5768;51.476;7.210;2022-07-29T12:31:16;100338.00;;;27.50
11424;BMP180;5768;51.476;7.210;2022-07-29T12:34:23;100347.00;;;28.20
11424;BMP180;5768;51.476;7.210;2022-07-29T12:37:25;100352.00;;;28.60
11424;BMP180;5768;51.476;7.210;2022-07-29T12:40:27;100358.00;;;29.00
11424;BMP180;5768;51.476;7.210;2022-07-29T12:43:30;100355.00;;;29.90
11424;BMP180;5768;51.476;7.210;2022-07-29T12:46:32;100352.00;;;30.40
11424;BMP180;5768;51.476;7.210;2022-07-29T12:49:36;100351.00;;;31.20
11424;BMP180;5768;51.476;7.210;2022-07-29T12:52:38;100349.00;;;31.90
11424;BMP180;5768;51.476;7.210;2022-07-29T12:55:42;100356.00;;;32.60
11424;BMP180;5768;51.476;7.210;2022-07-29T12:58:45;100349.00;;;32.80
11424;BMP180;5768;51.476;7.210;2022-07-29T13:01:50;100352.00;;;32.30
11424;BMP180;5768;51.476;7.210;2022-07-29T13:04:59;100347.00;;;32.50
11424;BMP180;5768;51.476;7.210;2022-07-29T13:08:11;100345.00;;;33.10
11424;BMP180;5768;51.476;7.210;2022-07-29T13:11:29;100361.00;;;33.10
11424;BMP180;5768;51.476;7.210;2022-07-29T13:14:33;100357.00;;;32.80
11424;BMP180;5768;51.476;7.210;2022-07-29T13:17:41;100346.00;;;32.20
11424;BMP180;5768;51.476;7.210;2022-07-29T13:20:45;100346.00;;;31.80
11424;BMP180;5768;51.476;7.210;2022-07-29T13:23:47;100348.00;;;31.70
11424;BMP180;5768;51.476;7.210;2022-07-29T13:26:50;100350.00;;;31.80
11424;BMP180;5768;51.476;7.210;2022-07-29T13:29:54;100353.00;;;32.20
11424;BMP180;5768;51.476;7.210;2022-07-29T13:32:57;100355.00;;;32.50
11424;BMP180;5768;51.476;7.210;2022-07-29T13:36:00;100349.00;;;32.60
11424;BMP180;5768;51.476;7.210;2022-07-29T13:39:03;100354.00;;;32.40
11424;BMP180;5768;51.476;7.210;2022-07-29T13:42:07;100359.00;;;31.80
11424;BMP180;5768;51.476;7.210;2022-07-29T13:45:10;100355.00;;;31.40
11424;BMP180;5768;51.476;7.210;2022-07-29T13:48:13;100348.00;;;31.20
11424;BMP180;5768;51.476;7.210;2022-07-29T13:51:16;100343.00;;;31.20
11424;BMP180;5768;51.476;7.210;2022-07-29T13:54:18;100345.00;;;31.40
11424;BMP180;5768;51.476;7.210;2022-07-29T13:57:20;100347.00;;;31.90
11424;BMP180;5768;51.476;7.210;2022-07-29T14:00:23;100345.00;;;33.40
11424;BMP180;5768;51.476;7.210;2022-07-29T14:03:25;100347.00;;;34.40
11424;BMP180;5768;51.476;7.210;2022-07-29T14:06:29;100339.00;;;34.80
11424;BMP180;5768;51.476;7.210;2022-07-29T14:09:31;100335.00;;;35.80
11424;BMP180;5768;51.476;7.210;2022-07-29T14:12:33;100342.00;;;36.50
11424;BMP180;5768;51.476;7.210;2022-07-29T14:15:35;100348.00;;;36.30
11424;BMP180;5768;51.476;7.210;2022-07-29T14:18:37;100350.00;;;36.50
11424;BMP180;5768;51.476;7.210;2022-07-29T14:21:41;100353.00;;;36.00
11424;BMP180;5768;51.476;7.210;2022-07-29T14:24:44;100347.00;;;36.80
11424;BMP180;5768;51.476;7.210;2022-07-29T14:27:46;100350.00;;;37.90
11424;BMP180;5768;51.476;7.210;2022-07-29T14:30:49;100348.00;;;39.60
11424;BMP180;5768;51.476;7.210;2022-07-29T14:33:51;100353.00;;;41.20
11424;BMP180;5768;51.476;7.210;2022-07-29T14:36:54;100347.00;;;41.80
11424;BMP180;5768;51.476;7.210;2022-07-29T14:39:57;100339.00;;;42.90
11424;BMP180;5768;51.476;7.210;2022-07-29T14:43:02;100344.00;;;43.90
11424;BMP180;5768;51.476;7.210;2022-07-29T14:46:04;100344.00;;;44.40
11424;BMP180;5768;51.476;7.210;2022-07-29T14:49:07;100342.00;;;44.80
11424;BMP180;5768;51.476;7.210;2022-07-29T14:52:11;100346.00;;;45.00
11424;BMP180;5768;51.476;7.210;2022-07-29T14:55:13;100350.00;;;45.50
11424;BMP180;5768;51.476;7.210;2022-07-29T14:58:15;100349.00;;;46.30
11424;BMP180;5768;51.476;7.210;2022-07-29T15:01:18;100347.00;;;46.60
11424;BMP180;5768;51.476;7.210;2022-07-29T15:04:20;100345.00;;;47.20
11424;BMP180;5768;51.476;7.210;2022-07-29T15:07:23;100353.00;;;47.00
11424;BMP180;5768;51.476;7.210;2022-07-29T15:10:26;100348.00;;;47.30
11424;BMP180;5768;51.476;7.210;2022-07-29T15:13:28;100349.00;;;48.10
11424;BMP180;5768;51.476;7.210;2022-07-29T15:16:31;100353.00;;;48.60
11424;BMP180;5768;51.476;7.210;2022-07-29T15:19:33;100353.00;;;48.30
11424;BMP180;5768;51.476;7.210;2022-07-29T15:22:37;100347.00;;;48.10
11424;BMP180;5768;51.476;7.210;2022-07-29T15:25:42;100352.00;;;47.60
11424;BMP180;5768;51.476;7.210;2022-07-29T15:28:44;100344.00;;;47.80
11424;BMP180;5768;51.476;7.210;2022-07-29T15:31:46;100351.00;;;48.20
11424;BMP180;5768;51.476;7.210;2022-07-29T15:34:48;100348.00;;;47.40
11424;BMP180;5768;51.476;7.210;2022-07-29T15:37:52;100340.00;;;46.40
11424;BMP180;5768;51.476;7.210;2022-07-29T15:40:54;100349.00;;;43.90
11424;BMP180;5768;51.476;7.210;2022-07-29T15:43:56;100333.00;;;42.00
11424;BMP180;5768;51.476;7.210;2022-07-29T15:46:58;100338.00;;;41.80
11424;BMP180;5768;51.476;7.210;2022-07-29T15:50:08;100345.00;;;42.10
11424;BMP180;5768;51.476;7.210;2022-07-29T15:53:16;100341.00;;;41.40
11424;BMP180;5768;51.476;7.210;2022-07-29T15:56:18;100339.00;;;41.00
11424;BMP180;5768;51.476;7.210;2022-07-29T15:59:21;100335.00;;;40.30
11424;BMP180;5768;51.476;7.210;2022-07-29T16:02:23;100338.00;;;39.70
11424;BMP180;5768;51.476;7.210;2022-07-29T16:05:25;100335.00;;;39.30
11424;BMP180;5768;51.476;7.210;2022-07-29T16:08:30;100336.00;;;39.50
11424;BMP180;5768;51.476;7.210;2022-07-29T16:11:33;100336.00;;;40.50
11424;BMP180;5768;51.476;7.210;2022-07-29T16:14:35;100334.00;;;41.60
11424;BMP180;5768;51.476;7.210;2022-07-29T16:17:38;100324.00;;;42.70
11424;BMP180;5768;51.476;7.210;2022-07-29T16:20:40;100333.00;;;43.00
11424;BMP180;5768;51.476;7.210;2022-07-29T16:23:44;100334.00;;;44.10
11424;BMP180;5768;51.476;7.210;2022-07-29T16:26:46;100335.00;;;45.00
11424;BMP180;5768;51.476;7.210;2022-07-29T16:29:50;100333.00;;;44.90
11424;BMP180;5768;51.476;7.210;2022-07-29T16:32:52;100332.00;;;43.00
11424;BMP180;5768;51.476;7.210;2022-07-29T16:35:54;100325.00;;;43.00
11424;BMP180;5768;51.476;7.210;2022-07-29T16:38:58;100326.00;;;44.00
11424;BMP180;5768;51.476;7.210;2022-07-29T16:42:00;100325.00;;;45.10
11424;BMP180;5768;51.476;7.210;2022-07-29T16:45:03;100339.00;;;45.10
11424;BMP180;5768;51.476;7.210;2022-07-29T16:48:05;100340.00;;;45.70
11424;BMP180;5768;51.476;7.210;2022-07-29T16:51:08;100334.00;;;46.30
11424;BMP180;5768;51.476;7.210;2022-07-29T16:54:11;100335.00;;;45.90
11424;BMP180;5768;51.476;7.210;2022-07-29T16:57:13;100344.00;;;45.20
11424;BMP180;5768;51.476;7.210;2022-07-29T17:00:17;100346.00;;;44.80
11424;BMP180;5768;51.476;7.210;2022-07-29T17:03:19;100352.00;;;45.00
11424;BMP180;5768;51.476;7.210;2022-07-29T17:06:21;100359.00;;;45.40
11424;BMP180;5768;51.476;7.210;2022-07-29T17:09:25;100359.00;;;45.40
11424;BMP180;5768;51.476;7.210;2022-07-29T17:12:28;100361.00;;;44.80
11424;BMP180;5768;51.476;7.210;2022-07-29T17:15:30;100366.00;;;44.10
11424;BMP180;5768;51.476;7.210;2022-07-29T17:18:32;100364.00;;;44.50
11424;BMP180;5768;51.476;7.210;2022-07-29T17:21:34;100356.00;;;44.20
11424;BMP180;5768;51.476;7.210;2022-07-29T17:24:38;100368.00;;;44.60
11424;BMP180;5768;51.476;7.210;2022-07-29T17:27:40;100367.00;;;44.90
11424;BMP180;5768;51.476;7.210;2022-07-29T17:30:42;100370.00;;;44.30
11424;BMP180;5768;51.476;7.210;2022-07-29T17:33:45;100364.00;;;43.90
11424;BMP180;5768;51.476;7.210;2022-07-29T17:36:47;100363.00;;;43.60
11424;BMP180;5768;51.476;7.210;2022-07-29T17:39:50;100362.00;;;43.00
11424;BMP180;5768;51.476;7.210;2022-07-29T17:42:52;100377.00;;;41.30
11424;BMP180;5768;51.476;7.210;2022-07-29T17:45:54;100370.00;;;40.40